NCAR-RAP Real-Time Weather Data

Output produced by METARs form (08 May 2021  17:01 UTC)
found at http://weather.rap.ucar.edu/surface/
 
KPSC 081653Z 21009KT 10SM CLR 14/M02 A3030 RMK AO2 SLP262 T01441022
KPSC 081553Z 23011KT 10SM CLR 13/M02 A3031 RMK AO2 SLP263 T01281022
KPSC 081453Z 23007KT 10SM CLR 11/M01 A3031 RMK AO2 SLP263 T01061006 52011
KPSC 081353Z 22008KT 10SM CLR 08/M01 A3030 RMK AO2 SLP260 T00831006
KPSC 081253Z 23010KT 10SM CLR 06/M01 A3028 RMK AO2 SLP254 T00611006
KPSC 081153Z AUTO 19008KT 10SM CLR 06/M01 A3027 RMK AO2 SLP251 70001 T00611006 10111 20061 53008
KPSC 081053Z AUTO 21009KT 10SM CLR 07/M02 A3026 RMK AO2 SLP247 T00671017
KPSC 080953Z AUTO 22008KT 10SM CLR 07/M03 A3025 RMK AO2 SLP244 T00671028
KPSC 080853Z AUTO 24010KT 10SM CLR 08/M02 A3025 RMK AO2 SLP243 T00831022 53012
KPSC 080753Z AUTO 23011KT 10SM CLR 09/M02 A3023 RMK AO2 SLP237 T00891017 401940083
KPSC 080653Z AUTO 25012KT 10SM CLR 10/M02 A3022 RMK AO2 SLP231 T01001017
KPSC 080553Z AUTO 26009KT 10SM CLR 11/M02 A3021 RMK AO2 SLP229 T01111022 10178 20106 51022
KPSC 080453Z AUTO 26011G20KT 10SM CLR 12/M03 A3019 RMK AO2 SLP224 T01221028